createdAt,value
2018-09-17T00:01:24.615Z,5.70
2018-09-17T00:03:54.860Z,5.67
2018-09-17T00:06:25.614Z,5.83
2018-09-17T00:08:55.773Z,5.97
2018-09-17T00:11:27.177Z,5.70
2018-09-17T00:13:57.211Z,5.57
2018-09-17T00:16:28.242Z,5.40
2018-09-17T00:18:58.369Z,5.63
2018-09-17T00:21:28.910Z,5.70
2018-09-17T00:23:59.341Z,5.70
2018-09-17T00:26:29.393Z,5.53
2018-09-17T00:28:59.540Z,5.77
2018-09-17T00:31:30.134Z,6.10
2018-09-17T00:34:01.110Z,5.93
2018-09-17T00:36:31.861Z,5.70
2018-09-17T00:39:02.387Z,5.67
2018-09-17T00:41:32.489Z,5.40
2018-09-17T00:44:02.586Z,6.30
2018-09-17T00:46:33.322Z,5.83
2018-09-17T00:49:04.520Z,5.90
2018-09-17T00:51:34.572Z,5.70
2018-09-17T00:54:05.624Z,6.00
2018-09-17T00:56:36.133Z,5.70
2018-09-17T00:59:06.957Z,5.77
2018-09-17T01:01:37.562Z,5.90
2018-09-17T01:04:08.723Z,5.70
2018-09-17T01:06:39.027Z,6.00
2018-09-17T01:09:13.484Z,5.80
2018-09-17T01:11:43.564Z,5.57
2018-09-17T01:14:14.029Z,6.23
2018-09-17T01:16:44.720Z,5.60
2018-09-17T01:19:15.489Z,5.90
2018-09-17T01:21:46.435Z,6.33
2018-09-17T01:24:16.864Z,5.83
2018-09-17T01:26:47.233Z,5.93
2018-09-17T01:29:17.236Z,5.87
2018-09-17T01:31:47.299Z,6.07
2018-09-17T01:34:17.908Z,6.33
2018-09-17T01:36:48.542Z,6.13
2018-09-17T01:39:19.226Z,6.30
2018-09-17T01:41:49.806Z,6.10
2018-09-17T01:44:20.299Z,6.10
2018-09-17T01:46:50.349Z,5.93
2018-09-17T01:49:20.443Z,6.20
2018-09-17T01:51:50.466Z,6.00
2018-09-17T01:54:20.940Z,6.03
2018-09-17T01:56:51.445Z,6.20
2018-09-17T01:59:21.511Z,6.80
2018-09-17T02:01:51.510Z,6.10
2018-09-17T02:04:21.986Z,6.20
2018-09-17T02:06:52.194Z,6.30
2018-09-17T02:09:22.274Z,6.53
2018-09-17T02:11:52.577Z,6.20
2018-09-17T02:14:23.169Z,6.97
2018-09-17T02:16:53.752Z,6.10
2018-09-17T02:19:23.697Z,6.40
2018-09-17T02:21:53.794Z,6.53
2018-09-17T02:24:24.001Z,6.50
2018-09-17T02:26:54.133Z,6.53
2018-09-17T02:29:24.334Z,6.60
2018-09-17T02:31:54.767Z,6.30
2018-09-17T02:34:24.907Z,6.30
2018-09-17T02:36:55.047Z,6.07
2018-09-17T02:39:25.098Z,6.40
2018-09-17T02:41:56.561Z,6.07
2018-09-17T02:44:27.491Z,6.70
2018-09-17T02:46:58.334Z,6.20
2018-09-17T02:49:28.490Z,6.20
2018-09-17T02:51:58.514Z,5.93
2018-09-17T02:54:29.101Z,5.97
2018-09-17T02:56:59.120Z,6.03
2018-09-17T02:59:29.800Z,6.47
2018-09-17T03:02:00.259Z,6.03
2018-09-17T03:04:30.426Z,6.30
2018-09-17T03:07:00.403Z,6.30
2018-09-17T03:09:30.505Z,6.20
2018-09-17T03:12:00.958Z,6.37
2018-09-17T03:14:32.002Z,6.27
2018-09-17T03:17:11.581Z,6.37
2018-09-17T03:19:42.685Z,6.10
2018-09-17T03:22:13.641Z,6.30
2018-09-17T03:24:43.643Z,6.30
2018-09-17T03:27:14.214Z,6.30
2018-09-17T03:29:44.359Z,6.23
2018-09-17T03:32:14.396Z,6.13
2018-09-17T03:34:45.029Z,6.27
2018-09-17T03:37:15.197Z,6.37
2018-09-17T03:39:45.247Z,6.23
2018-09-17T03:42:15.321Z,6.20
2018-09-17T03:44:45.485Z,6.50
2018-09-17T03:47:16.318Z,6.63
2018-09-17T03:49:46.969Z,6.47
2018-09-17T03:52:17.188Z,6.77
2018-09-17T03:54:47.265Z,6.53
2018-09-17T03:57:17.585Z,7.87
2018-09-17T03:59:48.802Z,6.87
2018-09-17T04:02:19.210Z,7.10
2018-09-17T04:04:49.616Z,6.80
2018-09-17T04:07:20.681Z,6.97
2018-09-17T04:09:51.669Z,6.93
2018-09-17T04:12:22.286Z,6.67
2018-09-17T04:14:52.812Z,7.47
2018-09-17T04:17:23.927Z,7.00
2018-09-17T04:19:54.549Z,6.90
2018-09-17T04:22:24.885Z,7.47
2018-09-17T04:24:55.190Z,7.17
2018-09-17T04:27:25.757Z,7.10
2018-09-17T04:29:55.832Z,7.07
2018-09-17T04:32:26.807Z,7.40
2018-09-17T04:34:56.849Z,6.80
2018-09-17T04:37:27.806Z,7.03
2018-09-17T04:39:57.930Z,7.23
2018-09-17T04:42:27.997Z,6.97
2018-09-17T04:44:58.719Z,7.40
2018-09-17T04:47:28.746Z,7.47
2018-09-17T04:49:59.168Z,6.70
2018-09-17T04:52:29.267Z,10.77
2018-09-17T04:55:00.114Z,9.13
2018-09-17T04:57:30.142Z,6.87
2018-09-17T05:00:01.429Z,6.70
2018-09-17T05:02:31.577Z,6.63
2018-09-17T05:05:02.541Z,6.53
2018-09-17T05:07:32.991Z,5.97
2018-09-17T05:10:03.416Z,6.20
2018-09-17T05:12:33.970Z,6.53
2018-09-17T05:15:04.556Z,6.97
2018-09-17T05:17:34.697Z,6.23
2018-09-17T05:20:05.105Z,6.53
2018-09-17T05:22:36.201Z,6.53
2018-09-17T05:25:06.544Z,6.53
2018-09-17T05:27:37.058Z,7.00
2018-09-17T05:30:07.497Z,6.40
2018-09-17T05:32:37.976Z,6.83
2018-09-17T05:35:08.716Z,6.50
2018-09-17T05:37:38.967Z,6.90
2018-09-17T05:40:09.123Z,6.80
2018-09-17T05:42:40.113Z,6.73
2018-09-17T05:45:10.152Z,7.17
2018-09-17T05:47:41.298Z,7.03
2018-09-17T05:50:11.411Z,7.13
2018-09-17T05:52:42.383Z,6.77
2018-09-17T05:55:12.533Z,7.50
2018-09-17T05:57:43.962Z,6.70
2018-09-17T06:00:14.277Z,7.47
2018-09-17T06:02:45.264Z,6.67
2018-09-17T06:05:15.832Z,6.87
2018-09-17T06:07:46.099Z,6.97
2018-09-17T06:10:17.732Z,6.33
2018-09-17T06:12:49.425Z,6.33
2018-09-17T06:15:20.727Z,6.50
2018-09-17T06:17:51.770Z,6.50
2018-09-17T06:20:21.991Z,6.50
2018-09-17T06:22:52.045Z,6.03
2018-09-17T06:25:22.708Z,6.53
2018-09-17T06:27:52.792Z,6.60
2018-09-17T06:30:23.570Z,6.87
2018-09-17T06:32:54.926Z,7.03
2018-09-17T06:35:25.822Z,6.80
2018-09-17T06:37:56.322Z,6.67
2018-09-17T06:40:26.502Z,5.77
2018-09-17T06:42:57.150Z,6.50
2018-09-17T06:45:27.227Z,6.03
2018-09-17T06:47:57.330Z,6.97
2018-09-17T06:50:27.658Z,6.50
2018-09-17T06:52:57.735Z,7.40
2018-09-17T06:55:27.864Z,6.10
2018-09-17T06:57:58.658Z,6.80
2018-09-17T07:00:29.124Z,7.23
2018-09-17T07:03:00.249Z,6.80
2018-09-17T07:05:30.256Z,5.53
2018-09-17T07:08:00.354Z,6.10
2018-09-17T07:10:30.401Z,6.27
2018-09-17T07:13:01.099Z,6.20
2018-09-17T07:15:31.579Z,5.87
2018-09-17T07:18:02.150Z,6.20
2018-09-17T07:20:32.309Z,6.20
2018-09-17T07:23:02.713Z,6.70
2018-09-17T07:25:32.791Z,6.10
2018-09-17T07:28:02.866Z,5.80
2018-09-17T07:30:32.938Z,6.93
2018-09-17T07:33:02.957Z,5.90
2018-09-17T07:35:33.479Z,6.00
2018-09-17T07:38:04.090Z,5.67
2018-09-17T07:40:34.189Z,6.40
2018-09-17T07:43:04.165Z,5.57
2018-09-17T07:45:34.796Z,6.57
2018-09-17T07:48:04.873Z,6.27
2018-09-17T07:50:34.927Z,6.57
2018-09-17T07:53:05.017Z,7.03
2018-09-17T07:55:35.444Z,7.57
2018-09-17T07:58:05.671Z,8.47
2018-09-17T08:00:35.674Z,8.90
2018-09-17T08:03:05.775Z,9.00
2018-09-17T08:05:36.844Z,8.43
2018-09-17T08:08:07.459Z,9.53
2018-09-17T08:10:37.493Z,9.10
2018-09-17T08:13:07.584Z,9.00
2018-09-17T08:15:37.635Z,9.27
2018-09-17T08:18:07.729Z,9.10
2018-09-17T08:20:37.755Z,10.43
2018-09-17T08:23:08.346Z,9.50
2018-09-17T08:25:39.078Z,10.10
2018-09-17T08:28:09.317Z,10.40
2018-09-17T08:30:40.112Z,10.23
2018-09-17T08:33:10.571Z,9.60
2018-09-17T08:35:41.341Z,10.27
2018-09-17T08:38:12.250Z,10.77
2018-09-17T08:40:42.801Z,10.43
2018-09-17T08:43:12.801Z,11.73
2018-09-17T08:45:43.010Z,10.90
2018-09-17T08:48:13.654Z,11.17
2018-09-17T08:50:44.099Z,11.03
2018-09-17T08:53:14.099Z,11.00
2018-09-17T08:55:45.260Z,10.83
2018-09-17T08:58:20.472Z,10.50
2018-09-17T09:00:56.749Z,11.57
2018-09-17T09:03:30.137Z,10.97
2018-09-17T09:06:05.314Z,11.57
2018-09-17T09:08:35.462Z,12.57
2018-09-17T09:11:10.527Z,11.07
2018-09-17T09:13:45.867Z,11.50
2018-09-17T09:16:16.249Z,10.63
2018-09-17T09:18:46.406Z,11.87
2018-09-17T09:21:17.496Z,10.67
2018-09-17T09:23:47.891Z,10.50
2018-09-17T09:26:19.097Z,10.70
2018-09-17T09:28:49.800Z,11.17
2018-09-17T09:31:19.870Z,10.53
2018-09-17T09:33:50.373Z,10.33
2018-09-17T09:36:20.718Z,10.10
2018-09-17T09:38:51.185Z,10.53
2018-09-17T09:41:22.491Z,10.60
2018-09-17T09:43:52.963Z,10.10
2018-09-17T09:46:23.406Z,9.73
2018-09-17T09:48:53.762Z,9.10
2018-09-17T09:51:23.869Z,9.33
2018-09-17T09:53:54.573Z,8.90
2018-09-17T09:56:24.747Z,8.23
2018-09-17T09:58:54.912Z,8.40
2018-09-17T10:02:29.330Z,8.80
2018-09-17T10:05:00.289Z,8.87
2018-09-17T10:07:30.333Z,8.67
2018-09-17T10:10:05.365Z,8.37
2018-09-17T10:12:40.408Z,5.40
2018-09-17T10:15:19.630Z,7.47
2018-09-17T10:17:54.928Z,5.70
2018-09-17T10:20:25.444Z,6.10
2018-09-17T10:22:55.972Z,6.40
2018-09-17T10:25:26.505Z,7.07
2018-09-17T10:27:57.817Z,7.07
2018-09-17T10:30:28.394Z,6.77
2018-09-17T10:32:59.065Z,6.30
2018-09-17T10:35:29.548Z,5.27
2018-09-17T10:37:59.612Z,5.20
2018-09-17T10:40:29.635Z,5.37
2018-09-17T10:43:00.517Z,5.80
2018-09-17T10:45:31.045Z,5.00
2018-09-17T10:48:02.028Z,4.57
2018-09-17T10:50:32.173Z,4.53
2018-09-17T10:53:02.918Z,4.00
2018-09-17T10:55:32.949Z,4.67
2018-09-17T10:58:03.946Z,4.53
2018-09-17T11:00:34.003Z,5.40
2018-09-17T11:03:04.854Z,4.23
2018-09-17T11:05:35.283Z,4.60
2018-09-17T11:08:05.394Z,4.53
2018-09-17T11:10:36.537Z,4.25
2018-09-17T11:13:07.147Z,4.80
2018-09-17T11:15:43.158Z,4.10
2018-09-17T11:18:13.670Z,4.45
2018-09-17T11:20:43.858Z,3.90
2018-09-17T11:23:14.506Z,4.10
2018-09-17T11:25:45.455Z,4.30
2018-09-17T11:28:15.557Z,4.42
2018-09-17T11:30:46.551Z,4.10
2018-09-17T11:33:16.851Z,4.08
2018-09-17T11:35:46.875Z,4.40
2018-09-17T11:38:17.370Z,3.92
2018-09-17T11:40:47.696Z,4.08
2018-09-17T11:43:17.925Z,4.05
2018-09-17T11:45:49.059Z,4.03
2018-09-17T11:48:20.228Z,4.15
2018-09-17T11:50:50.219Z,3.95
2018-09-17T11:53:20.490Z,3.85
2018-09-17T11:55:50.458Z,3.45
2018-09-17T11:58:20.504Z,4.10
2018-09-17T12:00:56.125Z,4.08
2018-09-17T12:03:31.273Z,4.08
2018-09-17T12:06:04.066Z,4.03
2018-09-17T12:08:34.297Z,3.95
2018-09-17T12:11:04.854Z,4.25
2018-09-17T12:13:35.045Z,4.37
2018-09-17T12:16:05.250Z,4.05
2018-09-17T12:18:35.375Z,4.20
2018-09-17T12:21:05.813Z,3.92
2018-09-17T12:23:36.838Z,3.92
2018-09-17T12:26:06.969Z,3.65
2018-09-17T12:28:37.931Z,3.75
2018-09-17T12:31:08.714Z,3.77
2018-09-17T12:33:39.586Z,3.60
2018-09-17T12:36:10.228Z,4.00
2018-09-17T12:38:41.328Z,3.83
2018-09-17T12:41:11.895Z,3.80
2018-09-17T12:43:42.349Z,3.95
2018-09-17T12:46:12.285Z,4.25
2018-09-17T12:48:42.932Z,3.92
2018-09-17T12:51:13.454Z,3.72
2018-09-17T12:53:43.968Z,3.50
2018-09-17T12:56:13.964Z,3.87
2018-09-17T12:58:43.920Z,4.20
2018-09-17T13:01:13.991Z,3.70
2018-09-17T13:03:44.082Z,3.80
2018-09-17T13:06:14.177Z,3.47
2018-09-17T13:08:44.491Z,3.70
2018-09-17T13:11:14.602Z,3.40
2018-09-17T13:13:44.616Z,3.65
2018-09-17T13:16:14.655Z,3.80
2018-09-17T13:18:45.078Z,3.35
2018-09-17T13:21:15.099Z,3.27
2018-09-17T13:23:45.695Z,3.50
2018-09-17T13:26:16.044Z,3.90
2018-09-17T13:28:46.592Z,3.70
2018-09-17T13:31:17.717Z,3.27
2018-09-17T13:33:47.817Z,3.40
2018-09-17T13:36:18.779Z,3.12
2018-09-17T13:38:48.845Z,3.45
2018-09-17T13:41:19.422Z,3.50
2018-09-17T13:43:50.108Z,3.27
2018-09-17T13:46:20.098Z,3.60
2018-09-17T13:48:50.062Z,3.40
2018-09-17T13:51:20.627Z,3.50
2018-09-17T13:53:50.648Z,3.52
2018-09-17T13:56:21.597Z,3.45
2018-09-17T13:58:51.624Z,3.37
2018-09-17T14:01:21.715Z,3.80
2018-09-17T14:03:51.798Z,3.40
2018-09-17T14:06:21.817Z,3.50
2018-09-17T14:08:52.897Z,3.65
2018-09-17T14:11:22.957Z,3.47
2018-09-17T14:13:53.428Z,3.25
2018-09-17T14:16:28.929Z,3.22
2018-09-17T14:18:59.228Z,3.58
2018-09-17T14:21:30.224Z,2.95
2018-09-17T14:24:00.834Z,3.20
2018-09-17T14:26:30.876Z,4.00
2018-09-17T14:29:00.917Z,3.50
2018-09-17T14:31:36.252Z,3.25
2018-09-17T14:34:06.861Z,3.30
2018-09-17T14:36:37.087Z,3.40
2018-09-17T14:39:09.689Z,3.42
2018-09-17T14:41:39.777Z,3.55
2018-09-17T14:44:09.826Z,4.00
2018-09-17T14:46:39.854Z,3.15
2018-09-17T14:49:10.057Z,3.40
2018-09-17T14:51:40.836Z,3.60
2018-09-17T14:54:10.951Z,3.30
2018-09-17T14:56:41.415Z,3.30
2018-09-17T14:59:12.016Z,3.20
2018-09-17T15:01:42.149Z,3.47
2018-09-17T15:04:12.172Z,3.47
2018-09-17T15:06:42.505Z,3.33
2018-09-17T15:09:12.638Z,3.40
2018-09-17T15:11:42.970Z,3.70
2018-09-17T15:14:14.005Z,3.40
2018-09-17T15:16:44.442Z,3.65
2018-09-17T15:19:14.450Z,3.30
2018-09-17T15:21:44.488Z,3.25
2018-09-17T15:24:14.581Z,3.40
2018-09-17T15:26:44.612Z,3.40
2018-09-17T15:29:14.683Z,3.45
2018-09-17T15:31:44.780Z,3.65
2018-09-17T15:34:14.929Z,3.45
2018-09-17T15:36:45.051Z,3.62
2018-09-17T15:39:15.323Z,3.70
2018-09-17T15:41:45.387Z,3.80
2018-09-17T15:44:15.385Z,3.40
2018-09-17T15:46:45.560Z,3.70
2018-09-17T15:49:16.096Z,3.20
2018-09-17T15:51:46.186Z,3.98
2018-09-17T15:54:16.637Z,4.60
2018-09-17T15:56:46.759Z,3.80
2018-09-17T15:59:16.878Z,3.60
2018-09-17T16:01:46.955Z,3.70
2018-09-17T16:04:16.986Z,3.47
2018-09-17T16:06:47.458Z,3.60
2018-09-17T16:09:17.557Z,3.42
2018-09-17T16:11:47.710Z,3.70
2018-09-17T16:14:17.829Z,3.52
2018-09-17T16:16:47.764Z,3.30
2018-09-17T16:19:18.450Z,3.52
2018-09-17T16:21:48.872Z,3.05
2018-09-17T16:24:18.921Z,3.60
2018-09-17T16:26:49.467Z,3.45
2018-09-17T16:29:20.070Z,3.90
2018-09-17T16:31:50.189Z,3.50
2018-09-17T16:34:20.789Z,3.63
2018-09-17T16:36:50.934Z,3.33
2018-09-17T16:39:21.554Z,3.50
2018-09-17T16:41:52.200Z,3.67
2018-09-17T16:44:23.222Z,3.63
2018-09-17T16:46:53.277Z,3.47
2018-09-17T16:49:24.791Z,3.40
2018-09-17T16:51:55.340Z,3.70
2018-09-17T16:54:25.443Z,3.93
2018-09-17T16:56:56.513Z,4.20
2018-09-17T16:59:26.602Z,4.00
2018-09-17T17:01:57.742Z,4.57
2018-09-17T17:04:27.973Z,4.30
2018-09-17T17:06:58.597Z,4.20
2018-09-17T17:09:28.859Z,4.23
2018-09-17T17:11:59.850Z,4.40
2018-09-17T17:14:29.918Z,4.60
2018-09-17T17:17:00.005Z,4.37
2018-09-17T17:19:30.166Z,3.90
2018-09-17T17:22:00.236Z,3.43
2018-09-17T17:24:30.267Z,3.60
2018-09-17T17:27:00.294Z,3.40
2018-09-17T17:29:30.492Z,3.50
2018-09-17T17:32:00.641Z,3.50
2018-09-17T17:34:30.766Z,2.90
2018-09-17T17:37:00.965Z,3.10
2018-09-17T17:39:31.108Z,3.30
2018-09-17T17:42:01.185Z,3.40
2018-09-17T17:44:31.290Z,3.27
2018-09-17T17:47:01.442Z,3.77
2018-09-17T17:49:31.572Z,3.30
2018-09-17T17:52:01.783Z,3.23
2018-09-17T17:54:32.055Z,3.60
2018-09-17T17:57:02.124Z,3.40
2018-09-17T17:59:32.306Z,3.90
2018-09-17T18:02:02.904Z,4.07
2018-09-17T18:04:33.128Z,4.20
2018-09-17T18:07:03.548Z,3.93
2018-09-17T18:09:33.711Z,4.00
2018-09-17T18:12:03.934Z,3.77
2018-09-17T18:14:35.106Z,4.00
2018-09-17T18:17:05.099Z,4.70
2018-09-17T18:19:35.264Z,5.40
2018-09-17T18:22:05.307Z,5.20
2018-09-17T18:24:35.389Z,5.10
2018-09-17T18:27:06.163Z,4.87
2018-09-17T18:29:36.170Z,4.83
2018-09-17T18:32:06.643Z,5.03
2018-09-17T18:34:37.068Z,5.07
2018-09-17T18:37:07.324Z,7.37
2018-09-17T18:39:38.157Z,5.50
2018-09-17T18:42:09.033Z,5.07
2018-09-17T18:44:39.681Z,5.57
2018-09-17T18:47:10.180Z,6.00
2018-09-17T18:49:40.852Z,5.40
2018-09-17T18:52:11.081Z,5.90
2018-09-17T18:54:41.604Z,5.03
2018-09-17T18:57:12.538Z,5.23
2018-09-17T18:59:43.131Z,5.03
2018-09-17T19:02:13.213Z,4.77
2018-09-17T19:04:43.330Z,5.13
2018-09-17T19:07:14.903Z,5.00
2018-09-17T19:09:48.542Z,5.40
2018-09-17T19:12:20.023Z,5.67
2018-09-17T19:14:55.425Z,5.37
2018-09-17T19:17:30.592Z,5.00
2018-09-17T19:20:00.790Z,5.23
2018-09-17T19:22:35.918Z,5.10
2018-09-17T19:25:06.144Z,5.37
2018-09-17T19:27:41.621Z,5.00
2018-09-17T19:30:11.730Z,4.83
2018-09-17T19:32:41.843Z,4.57
2018-09-17T19:35:12.652Z,5.23
2018-09-17T19:38:48.505Z,5.30
2018-09-17T19:41:18.744Z,5.80
2018-09-17T19:43:48.917Z,5.87
2018-09-17T19:46:20.118Z,5.83
2018-09-17T19:48:50.271Z,6.07
2018-09-17T19:52:25.745Z,6.87
2018-09-17T19:54:55.807Z,6.60
2018-09-17T19:57:30.834Z,5.87
2018-09-17T20:00:01.297Z,5.47
2018-09-17T20:02:31.311Z,5.50
2018-09-17T20:05:06.343Z,5.00
2018-09-17T20:07:37.018Z,5.50
2018-09-17T20:10:07.354Z,5.67
2018-09-17T20:12:38.274Z,6.60
2018-09-17T20:15:08.813Z,5.30
2018-09-17T20:17:39.614Z,6.30
2018-09-17T20:20:10.236Z,6.37
2018-09-17T20:22:40.582Z,6.70
2018-09-17T20:25:11.287Z,6.60
2018-09-17T20:27:42.687Z,6.67
2018-09-17T20:30:13.803Z,6.97
2018-09-17T20:32:44.495Z,6.33
2018-09-17T20:35:15.178Z,6.47
2018-09-17T20:37:45.324Z,6.63
2018-09-17T20:40:15.482Z,6.47
2018-09-17T20:42:45.546Z,6.47
2018-09-17T20:45:16.639Z,6.57
2018-09-17T20:47:47.112Z,6.97
2018-09-17T20:50:17.206Z,6.50
2018-09-17T20:52:47.669Z,9.13
2018-09-17T20:55:17.856Z,9.60
2018-09-17T20:57:47.957Z,7.80
2018-09-17T21:00:18.589Z,6.30
2018-09-17T21:02:48.705Z,6.33
2018-09-17T21:05:18.749Z,6.50
2018-09-17T21:07:49.955Z,6.80
2018-09-17T21:10:21.150Z,7.03
2018-09-17T21:12:51.614Z,6.83
2018-09-17T21:15:21.645Z,6.80
2018-09-17T21:17:51.781Z,6.83
2018-09-17T21:20:21.959Z,6.30
2018-09-17T21:22:52.612Z,6.90
2018-09-17T21:25:23.402Z,6.90
2018-09-17T21:27:53.617Z,6.40
2018-09-17T21:30:23.682Z,6.87
2018-09-17T21:32:54.649Z,6.23
2018-09-17T21:35:24.779Z,6.60
2018-09-17T21:37:56.603Z,6.57
2018-09-17T21:40:27.684Z,6.63
2018-09-17T21:42:57.947Z,6.30
2018-09-17T21:45:28.479Z,6.00
2018-09-17T21:47:58.622Z,6.00
2018-09-17T21:50:28.794Z,6.30
2018-09-17T21:52:59.050Z,6.07
2018-09-17T21:55:29.479Z,6.53
2018-09-17T21:58:00.032Z,6.20
2018-09-17T22:00:34.201Z,6.70
2018-09-17T22:03:04.525Z,6.33
2018-09-17T22:05:34.562Z,6.90
2018-09-17T22:08:05.053Z,6.73
2018-09-17T22:10:35.167Z,6.20
2018-09-17T22:13:05.231Z,7.10
2018-09-17T22:15:35.641Z,6.77
2018-09-17T22:18:05.987Z,6.87
2018-09-17T22:20:36.492Z,6.90
2018-09-17T22:23:06.989Z,6.83
2018-09-17T22:25:37.418Z,6.47
2018-09-17T22:28:07.915Z,7.20
2018-09-17T22:30:37.926Z,6.70
2018-09-17T22:33:08.346Z,6.73
2018-09-17T22:35:38.785Z,6.97
2018-09-17T22:38:08.751Z,7.27
2018-09-17T22:40:39.143Z,6.60
2018-09-17T22:43:09.322Z,6.60
2018-09-17T22:45:39.588Z,6.33
2018-09-17T22:48:09.633Z,6.57
2018-09-17T22:50:40.065Z,6.73
2018-09-17T22:53:10.153Z,6.90
2018-09-17T22:55:40.556Z,6.80
2018-09-17T22:58:11.500Z,7.23
2018-09-17T23:00:42.111Z,6.93
2018-09-17T23:03:12.725Z,7.53
2018-09-17T23:05:43.191Z,6.60
2018-09-17T23:08:13.255Z,7.07
2018-09-17T23:10:43.938Z,7.20
2018-09-17T23:13:13.979Z,6.67
2018-09-17T23:15:44.648Z,6.70
2018-09-17T23:18:15.075Z,6.97
2018-09-17T23:20:45.442Z,7.17
2018-09-17T23:23:15.594Z,6.93
2018-09-17T23:25:45.690Z,7.10
2018-09-17T23:28:16.250Z,6.67
2018-09-17T23:30:46.313Z,7.23
2018-09-17T23:33:17.064Z,7.07
2018-09-17T23:35:47.425Z,7.17
2018-09-17T23:38:18.426Z,6.50
2018-09-17T23:40:48.867Z,7.30
2018-09-17T23:43:19.369Z,7.03
2018-09-17T23:45:50.529Z,7.23
2018-09-17T23:48:21.392Z,6.70
2018-09-17T23:50:51.718Z,6.57
2018-09-17T23:53:22.316Z,7.37
2018-09-17T23:55:52.868Z,6.87
2018-09-17T23:58:23.153Z,6.70
